Time;durP1;ratioP1;P1;durP2;ratioP2;P2;SDS_P1;SDS_P2;PMS_P1;PMS_P2;Temp;Humidity;BMP_temperature;BMP_pressure;BME280_temperature;BME280_humidity;BME280_pressure;Samples;Min_cycle;Max_cycle;Signal;HPM_P1;HPM_P2
2021/11/25 00:01:09;;;;;;;;;;;;;;;;;;110945;1275;8791;-79
2021/11/25 00:03:37;;;;;;;;;;;;;;;;;;110954;1275;8842;-79
2021/11/25 00:06:05;;;;;;;;;;;;;;;;;;110971;1273;9687;-78
2021/11/25 00:08:33;;;;;;;;;;;;;;;;;;110769;1274;9705;-78
2021/11/25 00:11:01;;;;;;;;;;;;;;;;;;110966;1275;7984;-78
2021/11/25 00:13:28;;;;;;;;;;;;;;;;;;110968;1275;8767;-78
2021/11/25 00:15:56;;;;;;;;;;;;;;;;;;110974;1274;8371;-78
2021/11/25 00:18:24;;;;;;;;;;;;;;;;;;110931;1273;8758;-78
2021/11/25 00:20:53;;;;;;;;;;;;;;;;;;110853;1275;9687;-78
2021/11/25 00:23:21;;;;;;;;;;;;;;;;;;110765;1276;9692;-79
2021/11/25 00:25:49;;;;;;;;;;;;;;;;;;110805;1276;8384;-78
2021/11/25 00:28:17;;;;;;;;;;;;;;;;;;111002;1275;8818;-78
2021/11/25 00:30:45;;;;;;;;;;;;;;;;;;110959;1275;9694;-79
2021/11/25 00:33:13;;;;;;;;;;;;;;;;;;110843;1275;9691;-79
2021/11/25 00:35:41;;;;;;;;;;;;;;;;;;110980;1273;7986;-79
2021/11/25 00:38:09;;;;;;;;;;;;;;;;;;110976;1274;8882;-79
2021/11/25 00:40:37;;;;;;;;;;;;;;;;;;110957;1275;9412;-79
2021/11/25 00:43:05;;;;;;;;;;;;;;;;;;111047;1274;9099;-79
2021/11/25 00:45:32;;;;;;;;;;;;;;;;;;111321;1274;7927;-79
2021/11/25 00:48:01;;;;;;;;;;;;;;;;;;111316;1274;9137;-80
2021/11/25 00:50:29;;;;;;;;;;;;;;;;;;111318;1274;9687;-78
2021/11/25 00:52:57;;;;;;;;;;;;;;;;;;111329;1274;8021;-77
2021/11/25 00:55:25;;;;;;;;;;;;;;;;;;111024;1274;8803;-79
2021/11/25 00:57:53;;;;;;;;;;;;;;;;;;111001;1274;9693;-78
2021/11/25 01:00:23;;;;;;;;;;;;;;;;;;111344;1273;8008;-78
2021/11/25 01:02:51;;;;;;;;;;;;;;;;;;110951;1273;8794;-78
2021/11/25 01:05:19;;;;;;;;;;;;;;;;;;111295;1272;9699;-78
2021/11/25 01:07:48;;;;;;;;;;;;;;;;;;111329;1274;7996;-78
2021/11/25 01:10:21;;;;;;;;;;;;;;;;;;111316;1274;9718;-80
2021/11/25 01:12:52;;;;;;;;;;;;;;;;;;111144;1274;9448;-78
2021/11/25 01:15:28;;;;;;;;;;;;;;;;;;111322;1274;7971;-78
2021/11/25 01:18:02;;;;;;;;;;;;;;;;;;110819;1275;8005;-77
2021/11/25 01:20:31;;;;;;;;;;;;;;;;;;110981;1273;9694;-79
2021/11/25 01:23:00;;;;;;;;;;;;;;;;;;111324;1273;8057;-79
2021/11/25 01:25:28;;;;;;;;;;;;;;;;;;111325;1273;9697;-77
2021/11/25 01:27:56;;;;;;;;;;;;;;;;;;110922;1274;9687;-78
2021/11/25 01:30:25;;;;;;;;;;;;;;;;;;111332;1274;7993;-79
2021/11/25 01:32:54;;;;;;;;;;;;;;;;;;111324;1274;8805;-81
2021/11/25 01:35:22;;;;;;;;;;;;;;;;;;111316;1273;9705;-77
2021/11/25 01:37:51;;;;;;;;;;;;;;;;;;111344;1274;8707;-77
2021/11/25 01:40:20;;;;;;;;;;;;;;;;;;110991;1274;9059;-77
2021/11/25 01:42:48;;;;;;;;;;;;;;;;;;110835;1276;9745;-78
2021/11/25 01:45:16;;;;;;;;;;;;;;;;;;110514;1276;8790;-78
2021/11/25 01:47:46;;;;;;;;;;;;;;;;;;110941;1274;9690;-78
2021/11/25 01:50:16;;;;;;;;;;;;;;;;;;110938;1274;8479;-78
2021/11/25 01:52:45;;;;;;;;;;;;;;;;;;110825;1275;8962;-78
2021/11/25 01:55:14;;;;;;;;;;;;;;;;;;110864;1275;9690;-78
2021/11/25 01:57:43;;;;;;;;;;;;;;;;;;111193;1274;7996;-78
2021/11/25 02:00:17;;;;;;;;;;;;;;;;;;110997;1273;8973;-79
2021/11/25 02:02:46;;;;;;;;;;;;;;;;;;111153;1274;8960;-77
2021/11/25 02:05:14;;;;;;;;;;;;;;;;;;110963;1273;9705;-78
2021/11/25 02:07:41;;;;;;;;;;;;;;;;;;110981;1275;8008;-77
2021/11/25 02:10:10;;;;;;;;;;;;;;;;;;111009;1273;8786;-78
2021/11/25 02:12:38;;;;;;;;;;;;;;;;;;110824;1275;8343;-77
2021/11/25 02:15:08;;;;;;;;;;;;;;;;;;110979;1273;9687;-78
2021/11/25 02:17:37;;;;;;;;;;;;;;;;;;110845;1274;8958;-77
2021/11/25 02:20:07;;;;;;;;;;;;;;;;;;110878;1274;8228;-77
2021/11/25 02:22:36;;;;;;;;;;;;;;;;;;110966;1275;9693;-77
2021/11/25 02:25:06;;;;;;;;;;;;;;;;;;110960;1276;9706;-77
2021/11/25 02:27:34;;;;;;;;;;;;;;;;;;110820;1276;7962;-77
2021/11/25 02:30:04;;;;;;;;;;;;;;;;;;111222;1274;7984;-79
2021/11/25 02:32:34;;;;;;;;;;;;;;;;;;111336;1274;8011;-79
2021/11/25 02:35:04;;;;;;;;;;;;;;;;;;111332;1274;7973;-78
2021/11/25 02:37:32;;;;;;;;;;;;;;;;;;110821;1275;7989;-77
2021/11/25 02:40:13;;;;;;;;;;;;;;;;;;110976;1275;8785;-77
2021/11/25 02:42:41;;;;;;;;;;;;;;;;;;110935;1274;9814;-79
2021/11/25 02:45:09;;;;;;;;;;;;;;;;;;110942;1275;8366;-78
2021/11/25 02:47:36;;;;;;;;;;;;;;;;;;110813;1274;8768;-78
2021/11/25 02:50:05;;;;;;;;;;;;;;;;;;110928;1274;9694;-79
2021/11/25 02:52:32;;;;;;;;;;;;;;;;;;110848;1277;7972;-79
2021/11/25 02:55:00;;;;;;;;;;;;;;;;;;110977;1275;8768;-79
2021/11/25 02:57:32;;;;;;;;;;;;;;;;;;110860;1275;9694;-78
2021/11/25 03:00:00;;;;;;;;;;;;;;;;;;110916;1276;8139;-78
2021/11/25 03:02:28;;;;;;;;;;;;;;;;;;111028;1271;8938;-80
2021/11/25 03:04:56;;;;;;;;;;;;;;;;;;110995;1274;9690;-77
2021/11/25 03:07:24;;;;;;;;;;;;;;;;;;111339;1274;9700;-78
2021/11/25 03:09:52;;;;;;;;;;;;;;;;;;111331;1274;8950;-78
2021/11/25 03:12:20;;;;;;;;;;;;;;;;;;111005;1273;7997;-79
2021/11/25 03:14:48;;;;;;;;;;;;;;;;;;111338;1273;8914;-79
2021/11/25 03:17:16;;;;;;;;;;;;;;;;;;111286;1274;9690;-79
2021/11/25 03:19:43;;;;;;;;;;;;;;;;;;111339;1273;8801;-78
2021/11/25 03:22:11;;;;;;;;;;;;;;;;;;110810;1274;8012;-84
2021/11/25 03:24:40;;;;;;;;;;;;;;;;;;111304;1274;9705;-79
2021/11/25 03:27:08;;;;;;;;;;;;;;;;;;111323;1274;9716;-77
2021/11/25 03:29:35;;;;;;;;;;;;;;;;;;111333;1271;7995;-76
2021/11/25 03:32:03;;;;;;;;;;;;;;;;;;111310;1273;8957;-77
2021/11/25 03:34:31;;;;;;;;;;;;;;;;;;111327;1272;9689;-78
2021/11/25 03:36:59;;;;;;;;;;;;;;;;;;110962;1275;8215;-77
2021/11/25 03:39:27;;;;;;;;;;;;;;;;;;111310;1273;8973;-77
2021/11/25 03:41:55;;;;;;;;;;;;;;;;;;111339;1274;9690;-81
2021/11/25 03:44:24;;;;;;;;;;;;;;;;;;111324;1273;8009;-78
2021/11/25 03:46:53;;;;;;;;;;;;;;;;;;111359;1274;8362;-78
2021/11/25 03:49:21;;;;;;;;;;;;;;;;;;110816;1276;8785;-77
2021/11/25 03:51:49;;;;;;;;;;;;;;;;;;111018;1274;8781;-78
2021/11/25 03:54:17;;;;;;;;;;;;;;;;;;111306;1274;8364;-78
2021/11/25 03:56:44;;;;;;;;;;;;;;;;;;111317;1274;9702;-78
2021/11/25 03:59:12;;;;;;;;;;;;;;;;;;111010;1274;8009;-77
2021/11/25 04:01:40;;;;;;;;;;;;;;;;;;111297;1273;8956;-78
2021/11/25 04:04:10;;;;;;;;;;;;;;;;;;110966;1275;9687;-78
2021/11/25 04:06:38;;;;;;;;;;;;;;;;;;111310;1274;9701;-78
2021/11/25 04:09:06;;;;;;;;;;;;;;;;;;111328;1273;9034;-78
2021/11/25 04:11:34;;;;;;;;;;;;;;;;;;111297;1273;7966;-79
2021/11/25 04:14:03;;;;;;;;;;;;;;;;;;111338;1274;9687;-77
2021/11/25 04:16:31;;;;;;;;;;;;;;;;;;110979;1274;8781;-79
2021/11/25 04:18:59;;;;;;;;;;;;;;;;;;111019;1274;9699;-77
2021/11/25 04:21:29;;;;;;;;;;;;;;;;;;111328;1274;8093;-78
2021/11/25 04:23:57;;;;;;;;;;;;;;;;;;111004;1274;8936;-78
2021/11/25 04:26:25;;;;;;;;;;;;;;;;;;111313;1274;9710;-79
2021/11/25 04:28:52;;;;;;;;;;;;;;;;;;111336;1273;7998;-78
2021/11/25 04:36:54;;;;;;;;;;;;;;;;;;111318;1274;8029;-78
2021/11/25 04:39:22;;;;;;;;;;;;;;;;;;111194;1273;154211;-78
2021/11/25 04:41:50;;;;;;;;;;;;;;;;;;111347;1274;8359;-77
2021/11/25 04:44:18;;;;;;;;;;;;;;;;;;111332;1272;8781;-76
2021/11/25 04:46:46;;;;;;;;;;;;;;;;;;111318;1274;8936;-76
2021/11/25 04:49:15;;;;;;;;;;;;;;;;;;111336;1272;9698;-77
2021/11/25 04:51:43;;;;;;;;;;;;;;;;;;110883;1274;8046;-77
2021/11/25 04:54:11;;;;;;;;;;;;;;;;;;111344;1274;8938;-77
2021/11/25 04:56:39;;;;;;;;;;;;;;;;;;111324;1274;9711;-77
2021/11/25 04:59:07;;;;;;;;;;;;;;;;;;111314;1274;7964;-77
2021/11/25 05:01:34;;;;;;;;;;;;;;;;;;110994;1274;8355;-77
2021/11/25 05:04:02;;;;;;;;;;;;;;;;;;111334;1273;9715;-76
2021/11/25 05:06:30;;;;;;;;;;;;;;;;;;111342;1274;8770;-77
2021/11/25 05:08:58;;;;;;;;;;;;;;;;;;111291;1274;9687;-77
2021/11/25 05:11:26;;;;;;;;;;;;;;;;;;111317;1274;8043;-77
2021/11/25 05:13:54;;;;;;;;;;;;;;;;;;111320;1274;8782;-77
2021/11/25 05:16:22;;;;;;;;;;;;;;;;;;111339;1273;8177;-77
2021/11/25 05:18:50;;;;;;;;;;;;;;;;;;111042;1272;9243;-77
2021/11/25 05:21:18;;;;;;;;;;;;;;;;;;111346;1274;8823;-78
2021/11/25 05:23:45;;;;;;;;;;;;;;;;;;111299;1274;7951;-77
2021/11/25 05:26:13;;;;;;;;;;;;;;;;;;111324;1274;9690;-77
2021/11/25 05:28:41;;;;;;;;;;;;;;;;;;111326;1274;9720;-82
2021/11/25 05:31:10;;;;;;;;;;;;;;;;;;111314;1274;8000;-79
2021/11/25 05:33:38;;;;;;;;;;;;;;;;;;111024;1274;8784;-80
2021/11/25 05:36:06;;;;;;;;;;;;;;;;;;111293;1274;8937;-76
2021/11/25 05:38:34;;;;;;;;;;;;;;;;;;111327;1274;7948;-76
2021/11/25 05:41:02;;;;;;;;;;;;;;;;;;110967;1273;9691;-76
2021/11/25 05:43:30;;;;;;;;;;;;;;;;;;110844;1274;9691;-76
2021/11/25 05:45:59;;;;;;;;;;;;;;;;;;111301;1274;8972;-76
2021/11/25 05:48:28;;;;;;;;;;;;;;;;;;111335;1274;8785;-77
2021/11/25 05:50:56;;;;;;;;;;;;;;;;;;111358;1274;7984;-76
2021/11/25 05:53:24;;;;;;;;;;;;;;;;;;111327;1274;9687;-76
2021/11/25 05:55:52;;;;;;;;;;;;;;;;;;111320;1274;9702;-77
2021/11/25 05:58:20;;;;;;;;;;;;;;;;;;111344;1273;8072;-77
2021/11/25 06:00:48;;;;;;;;;;;;;;;;;;110823;1275;8961;-76
2021/11/25 06:03:17;;;;;;;;;;;;;;;;;;110982;1273;9705;-76
2021/11/25 06:05:45;;;;;;;;;;;;;;;;;;111311;1274;9687;-76
2021/11/25 06:08:13;;;;;;;;;;;;;;;;;;111330;1274;7983;-76
2021/11/25 06:10:41;;;;;;;;;;;;;;;;;;111017;1274;9723;-75
2021/11/25 06:13:08;;;;;;;;;;;;;;;;;;111361;1274;7963;-76
2021/11/25 06:15:36;;;;;;;;;;;;;;;;;;111339;1272;8758;-76
2021/11/25 06:18:04;;;;;;;;;;;;;;;;;;111312;1274;7946;-80
2021/11/25 06:20:32;;;;;;;;;;;;;;;;;;111001;1274;8379;-78
2021/11/25 06:23:00;;;;;;;;;;;;;;;;;;110836;1273;9704;-81
2021/11/25 06:25:28;;;;;;;;;;;;;;;;;;111001;1273;9687;-78
2021/11/25 06:27:56;;;;;;;;;;;;;;;;;;110871;1274;8781;-79
2021/11/25 06:30:24;;;;;;;;;;;;;;;;;;111324;1274;7959;-77
2021/11/25 06:32:52;;;;;;;;;;;;;;;;;;111332;1272;9699;-79
2021/11/25 06:35:23;;;;;;;;;;;;;;;;;;111311;1273;8007;-74
2021/11/25 06:37:52;;;;;;;;;;;;;;;;;;110964;1272;8381;-75
2021/11/25 06:40:25;;;;;;;;;;;;;;;;;;111271;1274;8936;-76
2021/11/25 06:42:57;;;;;;;;;;;;;;;;;;110917;1272;8008;-77
2021/11/25 06:45:26;;;;;;;;;;;;;;;;;;110928;1273;9355;-74
2021/11/25 06:47:55;;;;;;;;;;;;;;;;;;111253;1273;10172;-76
2021/11/25 06:50:24;;;;;;;;;;;;;;;;;;111149;1274;8439;-80
2021/11/25 06:52:53;;;;;;;;;;;;;;;;;;111006;1274;8938;-77
2021/11/25 06:55:22;;;;;;;;;;;;;;;;;;111433;1273;9700;-77
2021/11/25 06:57:51;;;;;;;;;;;;;;;;;;111103;1274;8770;-79
2021/11/25 07:00:22;;;;;;;;;;;;;;;;;;110887;1274;9394;-77
2021/11/25 07:02:54;;;;;;;;;;;;;;;;;;110949;1274;9748;-77
2021/11/25 07:05:23;;;;;;;;;;;;;;;;;;110878;1274;8791;-76
2021/11/25 07:07:52;;;;;;;;;;;;;;;;;;110882;1274;8368;-77
2021/11/25 07:10:21;;;;;;;;;;;;;;;;;;110932;1273;9710;-80
2021/11/25 07:12:49;;;;;;;;;;;;;;;;;;110967;1274;8957;-77
2021/11/25 07:15:18;;;;;;;;;;;;;;;;;;110927;1274;8056;-77
2021/11/25 07:17:46;;;;;;;;;;;;;;;;;;110997;1274;9687;-79
2021/11/25 07:20:15;;;;;;;;;;;;;;;;;;110906;1273;8053;-76
2021/11/25 07:22:43;;;;;;;;;;;;;;;;;;111311;1272;9535;-77
2021/11/25 07:25:12;;;;;;;;;;;;;;;;;;110874;1274;9708;-76
2021/11/25 07:27:41;;;;;;;;;;;;;;;;;;110961;1273;8424;-77
2021/11/25 07:30:11;;;;;;;;;;;;;;;;;;111188;1271;8880;-75
2021/11/25 07:32:39;;;;;;;;;;;;;;;;;;111316;1272;9687;-79
2021/11/25 07:35:09;;;;;;;;;;;;;;;;;;111050;1273;8011;-78
2021/11/25 07:37:38;;;;;;;;;;;;;;;;;;111284;1274;9709;-79
2021/11/25 07:40:07;;;;;;;;;;;;;;;;;;111290;1274;9697;-75
2021/11/25 07:42:35;;;;;;;;;;;;;;;;;;111003;1274;8110;-78
2021/11/25 07:45:04;;;;;;;;;;;;;;;;;;110975;1273;9693;-78
2021/11/25 07:47:33;;;;;;;;;;;;;;;;;;111310;1273;8797;-79
2021/11/25 07:50:03;;;;;;;;;;;;;;;;;;111158;1274;8025;-78
2021/11/25 07:52:31;;;;;;;;;;;;;;;;;;110954;1275;9694;-75
2021/11/25 07:54:59;;;;;;;;;;;;;;;;;;110969;1274;8768;-77
2021/11/25 07:57:27;;;;;;;;;;;;;;;;;;110993;1274;8833;-76
2021/11/25 07:59:55;;;;;;;;;;;;;;;;;;111328;1273;9718;-75
2021/11/25 08:02:23;;;;;;;;;;;;;;;;;;111286;1274;8417;-76
2021/11/25 08:04:53;;;;;;;;;;;;;;;;;;111299;1273;9494;-76
2021/11/25 08:07:21;;;;;;;;;;;;;;;;;;111163;1274;9785;-78
2021/11/25 08:09:49;;;;;;;;;;;;;;;;;;110966;1273;9694;-76
2021/11/25 08:12:17;;;;;;;;;;;;;;;;;;110793;1275;8015;-76
2021/11/25 08:14:45;;;;;;;;;;;;;;;;;;111014;1272;9081;-75
2021/11/25 08:17:13;;;;;;;;;;;;;;;;;;110930;1275;8972;-75
2021/11/25 08:19:44;;;;;;;;;;;;;;;;;;110969;1275;9702;-74
2021/11/25 08:22:14;;;;;;;;;;;;;;;;;;110953;1275;8054;-74
2021/11/25 08:24:43;;;;;;;;;;;;;;;;;;110346;1275;9064;-75
2021/11/25 08:27:13;;;;;;;;;;;;;;;;;;110960;1273;9711;-75
2021/11/25 08:29:43;;;;;;;;;;;;;;;;;;111324;1273;7996;-76
2021/11/25 08:32:11;;;;;;;;;;;;;;;;;;110979;1274;8799;-75
2021/11/25 08:34:39;;;;;;;;;;;;;;;;;;111008;1273;8008;-76
2021/11/25 08:37:07;;;;;;;;;;;;;;;;;;110986;1273;9693;-77
2021/11/25 08:39:37;;;;;;;;;;;;;;;;;;111343;1274;7951;-78
2021/11/25 08:42:06;;;;;;;;;;;;;;;;;;111011;1273;8818;-78
2021/11/25 08:44:35;;;;;;;;;;;;;;;;;;110880;1274;9693;-77
2021/11/25 08:47:02;;;;;;;;;;;;;;;;;;110860;1274;8372;-76
2021/11/25 08:49:30;;;;;;;;;;;;;;;;;;110995;1274;8952;-75
2021/11/25 08:51:58;;;;;;;;;;;;;;;;;;110996;1274;9345;-77
2021/11/25 08:54:26;;;;;;;;;;;;;;;;;;110296;1275;8008;-76
2021/11/25 08:56:55;;;;;;;;;;;;;;;;;;110564;1276;8900;-77
2021/11/25 08:59:23;;;;;;;;;;;;;;;;;;111011;1273;8462;-75
2021/11/25 09:01:51;;;;;;;;;;;;;;;;;;110824;1275;9705;-77
2021/11/25 09:04:19;;;;;;;;;;;;;;;;;;111273;1272;8781;-76
2021/11/25 09:06:47;;;;;;;;;;;;;;;;;;111018;1274;8367;-76
2021/11/25 09:09:15;;;;;;;;;;;;;;;;;;110782;1274;9285;-77
2021/11/25 09:11:43;;;;;;;;;;;;;;;;;;110779;1274;8339;-79
2021/11/25 09:14:12;;;;;;;;;;;;;;;;;;110804;1275;8938;-77
2021/11/25 09:16:41;;;;;;;;;;;;;;;;;;110751;1275;7962;-76
2021/11/25 09:19:09;;;;;;;;;;;;;;;;;;110982;1274;9001;-77
2021/11/25 09:21:37;;;;;;;;;;;;;;;;;;110645;1275;9088;-77
2021/11/25 09:24:07;;;;;;;;;;;;;;;;;;110644;1276;8375;-75
2021/11/25 09:26:37;;;;;;;;;;;;;;;;;;110970;1275;8952;-75
2021/11/25 09:29:07;;;;;;;;;;;;;;;;;;110738;1275;9040;-76
2021/11/25 09:31:36;;;;;;;;;;;;;;;;;;110915;1276;7971;-76
2021/11/25 09:34:05;;;;;;;;;;;;;;;;;;110817;1275;9708;-76
2021/11/25 09:36:39;;;;;;;;;;;;;;;;;;110799;1273;8992;-77
2021/11/25 09:39:08;;;;;;;;;;;;;;;;;;110876;1274;8904;-78
2021/11/25 09:41:39;;;;;;;;;;;;;;;;;;111327;1274;8939;-76
2021/11/25 09:44:08;;;;;;;;;;;;;;;;;;111308;1273;8059;-78
2021/11/25 09:46:37;;;;;;;;;;;;;;;;;;110931;1273;8804;-79
2021/11/25 09:49:05;;;;;;;;;;;;;;;;;;111080;1274;9699;-76
2021/11/25 09:51:34;;;;;;;;;;;;;;;;;;110836;1274;8422;-77
2021/11/25 09:54:02;;;;;;;;;;;;;;;;;;110851;1274;8769;-78
2021/11/25 09:56:30;;;;;;;;;;;;;;;;;;110932;1275;8073;-75
2021/11/25 09:59:00;;;;;;;;;;;;;;;;;;110918;1273;8939;-78
2021/11/25 10:01:28;;;;;;;;;;;;;;;;;;111038;1273;9687;-78
2021/11/25 10:03:56;;;;;;;;;;;;;;;;;;111129;1271;7974;-78
2021/11/25 10:06:27;;;;;;;;;;;;;;;;;;110337;1276;8962;-74
2021/11/25 10:08:55;;;;;;;;;;;;;;;;;;110482;1274;9494;-78
2021/11/25 10:11:32;;;;;;;;;;;;;;;;;;110845;1273;9785;-76
2021/11/25 10:14:05;;;;;;;;;;;;;;;;;;111044;1274;9687;-75
2021/11/25 10:16:39;;;;;;;;;;;;;;;;;;110445;1274;8101;-77
2021/11/25 10:19:31;;;;;;;;;;;;;;;;;;111078;1272;8381;-76
2021/11/25 10:22:08;;;;;;;;;;;;;;;;;;111276;1271;8804;-77
2021/11/25 10:24:38;;;;;;;;;;;;;;;;;;110950;1273;7985;-75
2021/11/25 10:27:19;;;;;;;;;;;;;;;;;;110836;1273;8505;-74
2021/11/25 10:29:48;;;;;;;;;;;;;;;;;;110912;1271;8058;-76
2021/11/25 10:32:21;;;;;;;;;;;;;;;;;;110807;1273;7999;-76
2021/11/25 10:35:07;;;;;;;;;;;;;;;;;;110850;1273;8087;-76
2021/11/25 10:37:54;;;;;;;;;;;;;;;;;;111299;1271;8781;-76
2021/11/25 10:40:25;;;;;;;;;;;;;;;;;;110977;1271;8783;-78
2021/11/25 10:42:53;;;;;;;;;;;;;;;;;;111271;1270;7977;-76
2021/11/25 10:45:22;;;;;;;;;;;;;;;;;;111301;1270;8861;-79
2021/11/25 10:47:59;;;;;;;;;;;;;;;;;;111296;1271;9686;-80
2021/11/25 10:50:31;;;;;;;;;;;;;;;;;;110915;1272;8198;-78
2021/11/25 10:53:05;;;;;;;;;;;;;;;;;;111288;1271;7977;-78
2021/11/25 10:55:34;;;;;;;;;;;;;;;;;;110939;1273;8414;-77
2021/11/25 10:58:05;;;;;;;;;;;;;;;;;;111300;1271;8884;-76
2021/11/25 11:00:38;;;;;;;;;;;;;;;;;;111282;1271;7961;-79
2021/11/25 11:03:07;;;;;;;;;;;;;;;;;;110694;1271;8785;-85
2021/11/25 11:05:56;;;;;;;;;;;;;;;;;;110833;1272;7967;-86
2021/11/25 11:08:29;;;;;;;;;;;;;;;;;;111005;1272;8787;-77
2021/11/25 11:11:05;;;;;;;;;;;;;;;;;;111245;1271;8505;-77
2021/11/25 11:13:43;;;;;;;;;;;;;;;;;;111022;1272;9718;-74
2021/11/25 11:18:53;;;;;;;;;;;;;;;;;;111241;1271;8369;-78
2021/11/25 11:21:33;;;;;;;;;;;;;;;;;;111248;1271;9735;-76
2021/11/25 11:24:07;;;;;;;;;;;;;;;;;;111274;1271;9754;-76
2021/11/25 11:26:38;;;;;;;;;;;;;;;;;;111258;1272;8784;-77
2021/11/25 11:29:08;;;;;;;;;;;;;;;;;;111262;1270;9687;-77
2021/11/25 11:31:37;;;;;;;;;;;;;;;;;;110874;1273;8494;-75
2021/11/25 11:34:09;;;;;;;;;;;;;;;;;;111276;1273;8949;-74
2021/11/25 11:36:42;;;;;;;;;;;;;;;;;;111026;1272;9724;-76
2021/11/25 11:39:12;;;;;;;;;;;;;;;;;;111174;1272;9687;-76
2021/11/25 11:41:41;;;;;;;;;;;;;;;;;;111249;1271;8770;-76
2021/11/25 11:44:09;;;;;;;;;;;;;;;;;;111287;1271;8871;-76
2021/11/25 11:46:40;;;;;;;;;;;;;;;;;;110811;1272;8901;-75
2021/11/25 11:49:08;;;;;;;;;;;;;;;;;;111234;1271;8966;-75
2021/11/25 11:51:36;;;;;;;;;;;;;;;;;;111033;1272;9701;-77
2021/11/25 11:54:15;;;;;;;;;;;;;;;;;;110976;1272;8003;-75
2021/11/25 11:56:45;;;;;;;;;;;;;;;;;;110784;1273;8681;-75
2021/11/25 11:59:15;;;;;;;;;;;;;;;;;;111315;1271;9032;-77
2021/11/25 12:02:04;;;;;;;;;;;;;;;;;;111235;1270;9687;-77
2021/11/25 12:04:42;;;;;;;;;;;;;;;;;;111239;1272;8136;-77
2021/11/25 12:07:38;;;;;;;;;;;;;;;;;;111274;1271;7989;-78
2021/11/25 12:10:46;;;;;;;;;;;;;;;;;;111284;1271;8082;-77
2021/11/25 12:13:14;;;;;;;;;;;;;;;;;;111268;1271;8031;-78
2021/11/25 12:15:42;;;;;;;;;;;;;;;;;;111250;1271;9714;-75
2021/11/25 12:18:28;;;;;;;;;;;;;;;;;;111267;1271;9601;-75
2021/11/25 12:20:58;;;;;;;;;;;;;;;;;;111255;1271;8110;-75
2021/11/25 12:23:45;;;;;;;;;;;;;;;;;;111005;1271;9700;-77
2021/11/25 12:26:13;;;;;;;;;;;;;;;;;;110864;1273;8112;-76
2021/11/25 12:28:43;;;;;;;;;;;;;;;;;;111310;1273;8933;-76
2021/11/25 12:33:50;;;;;;;;;;;;;;;;;;111088;1270;8000;-76
2021/11/25 12:36:38;;;;;;;;;;;;;;;;;;111014;1273;8368;-76
2021/11/25 12:39:26;;;;;;;;;;;;;;;;;;110806;1270;215732;-78
2021/11/25 12:41:54;;;;;;;;;;;;;;;;;;111258;1271;9780;-78
2021/11/25 12:44:22;;;;;;;;;;;;;;;;;;111301;1272;9690;-76
2021/11/25 12:46:52;;;;;;;;;;;;;;;;;;111280;1272;8011;-82
2021/11/25 12:49:20;;;;;;;;;;;;;;;;;;110847;1273;8956;-76
2021/11/25 12:51:48;;;;;;;;;;;;;;;;;;110911;1272;8367;-76
2021/11/25 12:54:16;;;;;;;;;;;;;;;;;;111259;1271;9599;-78
2021/11/25 12:57:07;;;;;;;;;;;;;;;;;;111043;1272;8388;-77
2021/11/25 12:59:56;;;;;;;;;;;;;;;;;;110783;1273;9691;-76
2021/11/25 13:02:24;;;;;;;;;;;;;;;;;;110988;1272;8770;-74
2021/11/25 13:05:06;;;;;;;;;;;;;;;;;;111290;1273;9727;-79
2021/11/25 13:07:48;;;;;;;;;;;;;;;;;;111019;1271;9010;-76
2021/11/25 13:10:23;;;;;;;;;;;;;;;;;;111258;1271;8054;-76
2021/11/25 13:13:08;;;;;;;;;;;;;;;;;;110811;1273;9082;-75
2021/11/25 13:15:36;;;;;;;;;;;;;;;;;;111281;1271;9509;-75
2021/11/25 13:18:06;;;;;;;;;;;;;;;;;;110887;1272;8014;-76
2021/11/25 13:20:47;;;;;;;;;;;;;;;;;;110288;1273;9778;-76
2021/11/25 13:23:21;;;;;;;;;;;;;;;;;;110837;1272;7989;-77
2021/11/25 13:25:54;;;;;;;;;;;;;;;;;;110979;1273;9740;-77
2021/11/25 13:28:28;;;;;;;;;;;;;;;;;;110866;1273;9718;-74
2021/11/25 13:31:14;;;;;;;;;;;;;;;;;;111285;1271;9735;-74
2021/11/25 13:34:00;;;;;;;;;;;;;;;;;;111022;1273;8370;-76
2021/11/25 13:36:37;;;;;;;;;;;;;;;;;;110873;1273;8573;-75
2021/11/25 13:39:10;;;;;;;;;;;;;;;;;;111298;1271;9699;-76
2021/11/25 13:41:41;;;;;;;;;;;;;;;;;;111009;1273;9730;-77
2021/11/25 13:44:12;;;;;;;;;;;;;;;;;;111262;1271;9776;-76
2021/11/25 13:46:47;;;;;;;;;;;;;;;;;;111292;1270;8986;-75
2021/11/25 13:49:17;;;;;;;;;;;;;;;;;;110913;1271;9677;-76
2021/11/25 13:51:47;;;;;;;;;;;;;;;;;;111053;1272;9337;-77
2021/11/25 13:54:37;;;;;;;;;;;;;;;;;;111318;1270;8869;-79
2021/11/25 13:57:09;;;;;;;;;;;;;;;;;;111306;1270;8248;-76
2021/11/25 14:03:33;;;;;;;;;;;;;;;;;;111105;1273;9240;-75
2021/11/25 14:06:04;;;;;;;;;;;;;;;;;;111183;1272;7974;-79
2021/11/25 14:08:36;;;;;;;;;;;;;;;;;;110785;1272;8035;-77
2021/11/25 14:11:14;;;;;;;;;;;;;;;;;;110928;1272;9705;-76
2021/11/25 14:14:10;;;;;;;;;;;;;;;;;;110494;1272;8888;-76
2021/11/25 14:16:50;;;;;;;;;;;;;;;;;;110596;1273;9071;-76
2021/11/25 14:19:21;;;;;;;;;;;;;;;;;;111003;1272;9344;-76
2021/11/25 14:22:35;;;;;;;;;;;;;;;;;;;;;
2021/11/25 14:25:07;;;;;;;;;;;;;;;;;;110464;1275;8028;-77
2021/11/25 14:30:15;;;;;;;;;;;;;;;;;;110519;1274;8913;-75
2021/11/25 14:32:47;;;;;;;;;;;;;;;;;;110406;1274;8094;-76
2021/11/25 14:35:28;;;;;;;;;;;;;;;;;;110466;1274;9701;-77
2021/11/25 14:38:01;;;;;;;;;;;;;;;;;;110229;1276;9718;-78
2021/11/25 14:40:31;;;;;;;;;;;;;;;;;;110443;1275;9687;-78
2021/11/25 14:43:17;;;;;;;;;;;;;;;;;;110794;1274;8370;-77
2021/11/25 14:45:47;;;;;;;;;;;;;;;;;;110419;1274;8080;-76
2021/11/25 14:48:26;;;;;;;;;;;;;;;;;;110949;1274;9053;-81
2021/11/25 14:51:02;;;;;;;;;;;;;;;;;;110969;1276;8054;-76
2021/11/25 14:53:38;;;;;;;;;;;;;;;;;;110944;1276;9434;-76
2021/11/25 14:56:08;;;;;;;;;;;;;;;;;;110950;1274;9697;-77
2021/11/25 14:59:11;;;;;;;;;;;;;;;;;;111034;1275;8946;-74
2021/11/25 15:01:49;;;;;;;;;;;;;;;;;;110593;1276;8376;-74
2021/11/25 15:04:21;;;;;;;;;;;;;;;;;;110508;1274;8779;-74
2021/11/25 15:06:57;;;;;;;;;;;;;;;;;;110550;1277;9694;-72
2021/11/25 15:09:25;;;;;;;;;;;;;;;;;;110453;1276;7982;-75
2021/11/25 15:11:55;;;;;;;;;;;;;;;;;;110469;1276;9689;-75
2021/11/25 15:14:29;;;;;;;;;;;;;;;;;;110385;1276;8954;-74
2021/11/25 15:16:57;;;;;;;;;;;;;;;;;;110467;1276;9472;-74
2021/11/25 15:19:25;;;;;;;;;;;;;;;;;;110965;1274;8882;-76
2021/11/25 15:21:53;;;;;;;;;;;;;;;;;;110952;1276;8953;-76
2021/11/25 15:24:42;;;;;;;;;;;;;;;;;;110914;1275;9693;-75
2021/11/25 15:27:11;;;;;;;;;;;;;;;;;;110546;1276;8978;-75
2021/11/25 15:30:28;;;;;;;;;;;;;;;;;;110601;1276;9065;-74
2021/11/25 15:32:58;;;;;;;;;;;;;;;;;;110479;1276;8106;-75
2021/11/25 15:35:32;;;;;;;;;;;;;;;;;;110485;1276;8369;-77
2021/11/25 15:38:00;;;;;;;;;;;;;;;;;;110904;1276;9293;-76
2021/11/25 15:40:28;;;;;;;;;;;;;;;;;;110806;1276;8769;-75
2021/11/25 15:42:57;;;;;;;;;;;;;;;;;;110440;1276;9686;-78
2021/11/25 15:45:25;;;;;;;;;;;;;;;;;;110315;1276;7959;-77
2021/11/25 15:47:53;;;;;;;;;;;;;;;;;;110439;1277;8854;-79
2021/11/25 15:50:24;;;;;;;;;;;;;;;;;;110490;1276;9706;-78
2021/11/25 15:52:55;;;;;;;;;;;;;;;;;;110239;1279;9253;-79
2021/11/25 15:55:23;;;;;;;;;;;;;;;;;;110321;1276;8887;-79
2021/11/25 15:57:52;;;;;;;;;;;;;;;;;;110384;1277;9694;-74
2021/11/25 16:00:29;;;;;;;;;;;;;;;;;;110260;1278;8294;-76
2021/11/25 16:02:57;;;;;;;;;;;;;;;;;;110467;1277;9870;-75
2021/11/25 16:05:26;;;;;;;;;;;;;;;;;;110731;1275;9694;-74
2021/11/25 16:07:54;;;;;;;;;;;;;;;;;;110754;1275;7985;-73
2021/11/25 16:10:22;;;;;;;;;;;;;;;;;;110345;1277;8759;-74
2021/11/25 16:12:53;;;;;;;;;;;;;;;;;;110369;1277;9711;-75
2021/11/25 16:15:22;;;;;;;;;;;;;;;;;;110433;1277;7996;-75
2021/11/25 16:17:51;;;;;;;;;;;;;;;;;;110642;1274;8447;-76
2021/11/25 16:20:20;;;;;;;;;;;;;;;;;;110912;1274;8944;-75
2021/11/25 16:22:48;;;;;;;;;;;;;;;;;;110873;1276;8373;-77
2021/11/25 16:25:16;;;;;;;;;;;;;;;;;;110866;1274;9698;-74
2021/11/25 16:27:44;;;;;;;;;;;;;;;;;;110750;1277;8372;-74
2021/11/25 16:30:14;;;;;;;;;;;;;;;;;;110774;1275;9694;-75
2021/11/25 16:32:42;;;;;;;;;;;;;;;;;;110307;1278;7975;-75
2021/11/25 16:35:10;;;;;;;;;;;;;;;;;;110775;1276;9782;-75
2021/11/25 16:37:37;;;;;;;;;;;;;;;;;;110935;1275;7962;-75
2021/11/25 16:40:06;;;;;;;;;;;;;;;;;;110468;1278;8094;-78
2021/11/25 16:42:54;;;;;;;;;;;;;;;;;;110346;1277;9741;-79
2021/11/25 16:45:22;;;;;;;;;;;;;;;;;;110553;1276;8788;-77
2021/11/25 16:50:38;;;;;;;;;;;;;;;;;;110558;1277;8784;-75
2021/11/25 16:53:06;;;;;;;;;;;;;;;;;;110499;1277;9794;-75
2021/11/25 16:55:36;;;;;;;;;;;;;;;;;;110467;1276;8369;-76
2021/11/25 16:58:04;;;;;;;;;;;;;;;;;;110949;1274;8926;-75
2021/11/25 17:00:31;;;;;;;;;;;;;;;;;;110947;1276;9707;-77
2021/11/25 17:03:01;;;;;;;;;;;;;;;;;;110962;1275;9704;-76
2021/11/25 17:05:29;;;;;;;;;;;;;;;;;;110926;1276;8489;-76
2021/11/25 17:07:57;;;;;;;;;;;;;;;;;;110835;1276;9687;-79
2021/11/25 17:10:25;;;;;;;;;;;;;;;;;;110794;1276;8803;-75
2021/11/25 17:12:53;;;;;;;;;;;;;;;;;;110651;1274;8410;-79
2021/11/25 17:15:24;;;;;;;;;;;;;;;;;;110718;1274;8801;-79
2021/11/25 17:17:52;;;;;;;;;;;;;;;;;;110957;1276;8767;-78
2021/11/25 17:20:24;;;;;;;;;;;;;;;;;;110936;1276;8005;-75
2021/11/25 17:22:53;;;;;;;;;;;;;;;;;;110482;1277;9716;-76
2021/11/25 17:25:21;;;;;;;;;;;;;;;;;;110975;1275;8768;-76
2021/11/25 17:27:50;;;;;;;;;;;;;;;;;;111009;1275;8369;-75
2021/11/25 17:30:19;;;;;;;;;;;;;;;;;;110815;1276;9706;-76